Winter Haven, Florida
Current Conditions -  °F | °C
As of 10:53 PM on Wednesday 17 Dec 2014 (Local Time) from KGIF Reporting Station
Clear Clear  
Wind Chill: 55°   Ceiling: Unl
Heat Index: 55°   Visibility: 10mi
Dew Point: 47°   Wind: 8mph
Humidity: 74%   Direction: 330°NNW
Pressure: 30.2"   Gusts: NA
Location:  28.02°N, 81.73°W
Report Text: KGIF 180353Z AUTO 33007KT 10SM CLR 13/08 A3020 RMK AO2 SLP225 T01280083
Loading
Personal Weather Stations






























Interactive Weather Map New forecast layout! Learn more

10-Day Weather Forecast

Advertisements
Track Severe Weather on mobile